Latest Coastal Weather Observations for Stenhouse Bay

IDS60701

Issued at 12:21 pm CST Tuesday 28 June 2022 (issued every 10 minutes, with the page automatically refreshed every 10 minutes)

About coastal observations | Map of coastal stations | Coastal observations for SA | Marine services | Other Formats
Station Details ID: 022049 Name: STENHOUSE BAY Lat: -35.28 Lon: 136.94 Height: 42.0 m
Data from the previous 72 hours. | See also: Recent months at Stenhouse Bay
Date/Time
CST
Wind Sea
Height
m
Swell Vis
km
Cloud Weather Temp
°C
Press
MSL
hPa
Rain since
9am
mm
Dir  Spd
kts
Gust
kts
Height
m
Period
s
Dir
28/12:00pm NNW 15 21 - - - - - - - 15.5 1026.5 0.0
28/11:30am NNW 15 20 - - - - - - - 15.3 1027.1 0.0
28/11:00am NNW 15 23 - - - - - - - 14.9 1027.4 0.0
28/10:30am NNW 16 22 - - - - - - - 14.5 1027.4 0.0
28/10:00am NNW 14 21 - - - - - - - 14.0 1027.8 0.0
28/09:30am N 8 11 - - - - - - - 12.5 1027.8 0.0
28/09:00am NNW 6 7 - - - - - - - 10.3 1028.0 0.4
28/08:30am NNW 6 8 - - - - - - - 8.6 1028.2 0.4
28/08:00am NNW 6 7 - - - - - - - 7.9 1028.2 0.4
28/07:30am NNW 10 11 - - - - - - - 7.5 1028.2 0.4
28/07:00am NNW 8 10 - - - - - - - 6.8 1027.9 0.4
28/06:30am NNW 10 12 - - - - - - - 7.4 1027.7 0.4
28/06:00am NNW 10 12 - - - - - - - 6.9 1027.3 0.2
28/05:30am NNW 9 12 - - - - - - - 6.7 1027.3 0.2
28/05:00am N 8 9 - - - - - - - 6.0 1027.0 0.2
28/04:30am N 8 10 - - - - - - - 6.1 1027.5 0.2
28/04:00am N 9 10 - - - - - - - 5.5 1027.7 0.2
28/03:30am N 7 8 - - - - - - - 5.8 1028.2 0.2
28/03:00am N 6 7 - - - - - - - 5.8 1028.6 0.2
28/02:30am NNE 5 6 - - - - - - - 6.3 1029.0 0.2
28/02:00am N 6 7 - - - - - - - 5.9 1029.4 0.2
28/01:30am N 6 7 - - - - - - - 5.7 1029.4 0.2
28/01:00am N 5 7 - - - - - - - 5.6 1029.7 0.2
28/12:30am N 7 8 - - - - - - - 5.6 1029.9 0.2
28/12:00am N 6 7 - - - - - - - 5.7 1030.2 0.2
 
Date/Time
CST
Wind Sea
Height
m
Swell Vis
km
Cloud Weather Temp
°C
Press
MSL
hPa
Rain since
9am
mm
Dir  Spd
kts
Gust
kts
Height
m
Period
s
Dir
27/11:30pm N 6 8 - - - - - - - 5.5 1030.5 0.2
27/11:00pm N 6 7 - - - - - - - 5.3 1030.8 0.2
27/10:30pm N 6 7 - - - - - - - 5.5 1031.0 0.2
27/10:00pm N 5 6 - - - - - - - 6.5 1031.4 0.0
27/09:30pm N 6 8 - - - - - - - 7.2 1031.9 0.0
27/09:00pm N 4 5 - - - - - - - 6.5 1032.3 0.0
27/08:30pm N 5 7 - - - - - - - 6.9 1032.2 0.0
27/08:00pm N 4 5 - - - - - - - 7.6 1032.4 0.0
27/07:30pm N 4 5 - - - - - - - 8.0 1032.4 0.0
27/07:00pm N 2 2 - - - - - - - 8.6 1032.3 0.0
27/06:30pm N 3 4 - - - - - - - 8.7 1032.3 0.0
27/06:00pm NNW 4 4 - - - - - - - 8.8 1032.4 0.0
27/05:30pm NNW 5 6 - - - - - - - 9.4 1032.4 0.0
27/05:00pm N 5 6 - - - - - - - 10.4 1032.4 0.0
27/04:30pm NNW 5 7 - - - - - - - 11.4 1032.4 0.0
27/04:00pm NNW 6 9 - - - - - - - 12.0 1032.4 0.0
27/03:30pm NNW 8 11 - - - - - - - 13.0 1032.5 0.0
27/03:00pm N 7 10 - - - - - - - 13.3 1032.8 0.0
27/02:30pm N 8 11 - - - - - - - 13.5 1033.0 0.0
27/02:00pm N 7 9 - - - - - - - 13.6 1033.2 0.0
27/01:30pm N 7 11 - - - - - - - 15.8 1033.5 0.0
27/01:00pm N 7 10 - - - - - - - 14.2 1034.2 0.0
27/12:30pm N 4 6 - - - - - - - 13.6 1034.7 0.0
27/12:00pm NNW 6 10 - - - - - - - 14.5 1034.9 0.0
27/11:30am N 6 10 - - - - - - - 15.2 1035.1 0.0
27/11:00am N 8 11 - - - - - - - 14.1 1035.5 0.0
27/10:30am N 7 10 - - - - - - - 14.2 1035.6 0.0
27/10:00am N 6 8 - - - - - - - 13.5 1035.8 0.0
27/09:30am N 4 5 - - - - - - - 12.5 1035.6 0.0
27/09:00am N 3 5 - - - - - - - 11.4 1035.1 1.6
27/08:30am NNW 3 4 - - - - - - - 9.7 1035.1 1.6
27/08:00am NNW 3 4 - - - - - - - 8.1 1034.7 1.6
27/07:30am NNW 3 4 - - - - - - - 6.8 1034.1 1.6
27/07:00am NNW 4 5 - - - - - - - 7.2 1033.8 1.6
27/06:30am NNW 4 5 - - - - - - - 7.2 1033.7 1.6
27/06:00am NNW 4 5 - - - - - - - 7.0 1033.5 1.6
27/05:30am NW 3 3 - - - - - - - 7.9 1033.2 1.6
27/05:00am NNW 2 2 - - - - - - - 9.0 1033.2 1.6
27/04:30am N 2 3 - - - - - - - 9.1 1033.3 1.6
27/04:00am CALM 0 0 - - - - - - - 9.5 1033.3 1.6
27/03:30am CALM 0 1 - - - - - - - 9.6 1033.3 1.6
27/03:00am ENE 1 4 - - - - - - - 10.4 1033.4 1.6
27/02:30am ESE 5 5 - - - - - - - 10.6 1033.4 1.6
27/02:00am SE 5 7 - - - - - - - 10.9 1033.5 1.6
27/01:30am ESE 6 8 - - - - - - - 10.9 1033.4 1.6
27/01:00am SE 6 9 - - - - - - - 11.2 1033.6 1.6
27/12:30am SE 7 10 - - - - - - - 11.7 1033.7 1.6
27/12:00am SE 6 9 - - - - - - - 11.4 1033.8 1.6
 
Date/Time
CST
Wind Sea
Height
m
Swell Vis
km
Cloud Weather Temp
°C
Press
MSL
hPa
Rain since
9am
mm
Dir  Spd
kts
Gust
kts
Height
m
Period
s
Dir
26/11:30pm SE 7 9 - - - - - - - 11.2 1033.7 1.6
26/11:00pm SSE 7 9 - - - - - - - 11.4 1033.4 1.6
26/10:30pm SSE 7 9 - - - - - - - 11.5 1033.0 1.6
26/10:00pm SSE 8 11 - - - - - - - 11.8 1032.9 1.6
26/09:30pm SSE 9 11 - - - - - - - 11.8 1032.7 1.6
26/09:00pm SSE 9 12 - - - - - - - 11.9 1032.5 1.6
26/08:30pm SSE 10 12 - - - - - - - 11.9 1032.2 1.6
26/08:00pm SSE 12 15 - - - - - - - 12.4 1031.9 1.6
26/07:30pm SSE 10 14 - - - - - - - 12.8 1031.6 1.6
26/07:00pm S 8 12 - - - - - - - 12.5 1031.4 1.6
26/06:30pm S 12 17 - - - - - - - 12.7 1031.1 1.6
26/06:00pm S 14 18 - - - - - - - 13.0 1030.7 1.6
26/05:30pm SSW 15 20 - - - - - - - 13.4 1030.3 1.6
26/05:00pm S 11 16 - - - - - - - 13.4 1029.9 1.6
26/04:30pm S 13 17 - - - - - - - 13.5 1029.6 1.6
26/04:00pm SSW 11 14 - - - - - - - 13.7 1029.4 1.6
26/03:30pm SSW 12 17 - - - - - - - 14.0 1029.1 1.6
26/03:00pm SSW 11 16 - - - - - - - 14.3 1028.8 1.6
26/02:30pm SSW 10 16 - - - - - - - 14.4 1028.6 1.6
26/02:00pm SSW 10 13 - - - - - - - 14.6 1028.5 1.6
26/01:30pm S 8 11 - - - - - - - 15.0 1028.3 1.6
26/01:00pm S 11 15 - - - - - - - 14.4 1028.2 1.6
26/12:30pm S 10 13 - - - - - - - 14.5 1028.4 1.6
26/12:00pm SSW 8 11 - - - - - - - 15.3 1028.4 1.6
26/11:30am SSW 9 13 - - - - - - - 14.3 1028.5 1.6
26/11:00am S 10 13 - - - - - - - 14.1 1028.6 1.6
26/10:30am S 9 12 - - - - - - - 14.0 1028.3 1.6
26/10:00am SSW 11 17 - - - - - - - 13.5 1028.1 1.6
26/09:30am SW 12 19 - - - - - - - 12.8 1027.9 1.6
26/09:00am WSW 12 17 - - - - - - Rain 12.6 1027.3 3.6
26/08:30am WSW 9 12 - - - - - - - 12.6 1027.0 2.6
26/08:00am WSW 14 24 - - - - - - - 12.6 1026.6 2.4
26/07:30am WSW 10 16 - - - - - - - 13.2 1026.3 1.6
26/07:00am SW 14 21 - - - - - - - 13.7 1026.0 1.6
26/06:30am SW 12 18 - - - - - - - 13.2 1025.6 1.6
26/06:00am WSW 12 18 - - - - - - - 13.6 1025.2 1.4
26/05:30am WSW 10 16 - - - - - - - 13.2 1025.0 1.4
26/05:00am WSW 9 14 - - - - - - - 13.8 1024.6 1.4
26/04:30am WSW 10 14 - - - - - - - 13.7 1024.5 1.4
26/04:00am WSW 11 16 - - - - - - - 13.8 1024.3 1.4
26/03:30am WSW 8 12 - - - - - - - 12.8 1024.3 1.4
26/03:00am WSW 11 15 - - - - - - - 13.4 1024.2 1.4
26/02:30am W 6 8 - - - - - - - 11.7 1024.3 1.4
26/02:00am W 6 7 - - - - - - - 11.3 1024.3 1.4
26/01:30am W 8 15 - - - - - - - 12.3 1024.2 1.4
26/01:00am WNW 9 13 - - - - - - - 13.3 1024.0 1.4
26/12:30am W 9 15 - - - - - - - 13.9 1023.9 1.4
26/12:00am W 8 11 - - - - - - - 13.7 1024.0 1.4
 
Date/Time
CST
Wind Sea
Height
m
Swell Vis
km
Cloud Weather Temp
°C
Press
MSL
hPa
Rain since
9am
mm
Dir  Spd
kts
Gust
kts
Height
m
Period
s
Dir
25/11:30pm W 8 11 - - - - - - - 13.2 1023.9 1.4
25/11:00pm WSW 8 11 - - - - - - - 14.1 1023.9 1.4
25/10:30pm WSW 12 18 - - - - - - - 13.9 1023.8 1.4
25/10:00pm WSW 12 17 - - - - - - - 13.8 1023.7 1.4
25/09:30pm WSW 11 17 - - - - - - - 13.3 1023.5 1.4
25/09:00pm WSW 10 19 - - - - - - Rain 13.8 1023.5 1.2
25/08:30pm WSW 11 17 - - - - - - - 13.4 1023.2 1.0
25/08:00pm W 7 9 - - - - - - - 12.3 1022.9 1.0
25/07:30pm W 13 20 - - - - - - - 13.3 1022.7 1.0
25/07:00pm W 10 15 - - - - - - - 12.6 1022.5 1.0
25/06:30pm W 9 11 - - - - - - - 13.2 1022.1 0.8
25/06:00pm WNW 7 10 - - - - - - - 13.3 1021.8 0.8
25/05:30pm WNW 6 8 - - - - - - - 13.4 1021.5 0.8
25/05:00pm W 7 10 - - - - - - - 13.7 1021.3 0.8
25/04:30pm W 7 12 - - - - - - - 14.4 1021.0 0.8
25/04:00pm W 9 14 - - - - - - - 14.2 1021.0 0.8
25/03:30pm WNW 10 14 - - - - - - - 15.3 1021.1 0.2
25/03:00pm NW 10 13 - - - - - - - 16.1 1021.1 0.2
25/02:30pm W 12 16 - - - - - - - 16.0 1021.0 0.2
25/02:00pm WNW 12 16 - - - - - - - 15.7 1021.1 0.2
25/01:30pm W 11 15 - - - - - - - 15.6 1021.3 0.2
25/01:00pm WNW 14 22 - - - - - - - 15.9 1021.6 0.2
25/12:30pm NW 14 18 - - - - - - - 15.5 1021.8 0.2

Other formats

Comma delimited format used in spreadsheet applications
http://www.bom.gov.au/fwo/IDS60701/IDS60701.95806.axf

JavaScript Object Notation format (JSON) in row-major order
http://www.bom.gov.au/fwo/IDS60701/IDS60701.95806.json

Data quality

Most of these data are generated automatically and are frequently updated. Quality checks on data are not normally performed. It is possible for incorrect values to appear. Refer to information at About Latest Weather Observations and please check the disclaimer before using these data.